KMAF/MAF METAR and TAF weather

Enter ICAO airport designator
Station Type Date Time Source
KMAF METAR 2019/10/23 02:53 UTC NOAA

KMAF 230253Z 17003KT 10SM CLR 17/M08 A3008 RMK AO2 SLP159 T01671078 56003


Station Type Date Time Source
KMAF Decoded METAR 2019/10/23 02:53 UTC NOAA

MIDLAND INTERNATIONAL AIRPORT , TX, United States (KMAF) 31-56N 102-12W 872M
Oct 22, 2019 - 10:53 PM EDT / 2019.10.23 0253 UTC
Wind: from the S (170 degrees) at 3 MPH (3 KT):0
Visibility: 10 mile(s):0
Sky conditions: clear
Temperature: 62.1 F (16.7 C)
Dew Point: 18.0 F (-7.8 C)
Relative Humidity: 17%
Pressure (altimeter): 30.08 in. Hg (1018 hPa)
Pressure tendency: 0.01 inches (0.3 hPa) lower than three hours ago
ob: KMAF 230253Z 17003KT 10SM CLR 17/M08 A3008 RMK AO2 SLP159 T01671078 56003
cycle: 3

Station Type Date Time Source
KMAF TAF 2019/10/22 21:46 UTC NOAA

TAF
AMD KMAF 222044Z 2221/2318 23009G18KT P6SM SKC
FM222300 20008KT P6SM SKC

Example: see airport list